Time;durP1;ratioP1;P1;durP2;ratioP2;P2;SDS_P1;SDS_P2;PMS_P1;PMS_P2;Temp;Humidity;BMP_temperature;BMP_pressure;BME280_temperature;BME280_humidity;BME280_pressure;Samples;Min_cycle;Max_cycle;Signal;HPM_P1;HPM_P2
2021/08/26 00:07:02;;;;;;;4.80;2.63;;;15.00;99.90;;;;;;5038940;28;20496;-82
2021/08/26 00:09:29;;;;;;;8.00;3.13;;;15.00;99.90;;;;;;5039013;28;20892;-82
2021/08/26 00:11:56;;;;;;;3.27;3.07;;;14.90;99.90;;;;;;5041880;28;20447;-82
2021/08/26 00:14:24;;;;;;;7.43;3.90;;;14.90;99.90;;;;;;5042273;28;20985;-82
2021/08/26 00:16:51;;;;;;;5.50;2.70;;;15.00;99.90;;;;;;5046632;28;20493;-83
2021/08/26 00:19:20;;;;;;;4.00;3.60;;;15.00;99.90;;;;;;5047402;28;20518;-83
2021/08/26 00:21:46;;;;;;;4.70;3.80;;;14.90;99.90;;;;;;5050268;28;20443;-83
2021/08/26 00:24:14;;;;;;;8.63;4.13;;;14.70;99.90;;;;;;5050404;28;20488;-82
2021/08/26 00:26:40;;;;;;;8.10;3.73;;;14.90;99.90;;;;;;5051372;28;20482;-82
2021/08/26 00:29:10;;;;;;;4.17;3.70;;;14.90;99.90;;;;;;5050556;28;20477;-82
2021/08/26 00:31:36;;;;;;;4.57;3.87;;;14.80;99.90;;;;;;5052774;28;20462;-82
2021/08/26 00:34:03;;;;;;;8.43;4.17;;;14.80;99.90;;;;;;5053991;28;20467;-82
2021/08/26 00:36:31;;;;;;;11.37;4.13;;;14.80;99.90;;;;;;5051633;28;20446;-82
2021/08/26 00:38:58;;;;;;;8.97;4.50;;;14.90;99.90;;;;;;5049565;28;20453;-82
2021/08/26 00:41:26;;;;;;;10.20;4.57;;;14.90;99.90;;;;;;5050634;28;20450;-82
2021/08/26 00:43:53;;;;;;;9.30;4.20;;;14.80;99.90;;;;;;5047014;28;20471;-82
2021/08/26 00:46:20;;;;;;;5.23;4.67;;;14.90;99.90;;;;;;5048430;28;20443;-82
2021/08/26 00:48:48;;;;;;;7.20;4.30;;;14.90;99.90;;;;;;5050773;28;20453;-82
2021/08/26 00:51:15;;;;;;;6.13;3.90;;;14.90;99.90;;;;;;5049529;28;20509;-82
2021/08/26 00:53:48;;;;;;;6.20;4.43;;;14.80;99.90;;;;;;5056778;22;20487;-80
2021/08/26 00:56:15;;;;;;;6.17;4.03;;;14.70;99.90;;;;;;5015578;28;20611;-79
2021/08/26 00:58:43;;;;;;;6.80;4.47;;;14.70;99.90;;;;;;5014613;28;20482;-79
2021/08/26 01:01:11;;;;;;;8.73;4.80;;;14.70;99.90;;;;;;5015272;28;20451;-79
2021/08/26 01:03:57;;;;;;;6.80;4.37;;;14.70;99.90;;;;;;5022493;28;20993;-79
2021/08/26 01:06:30;;;;;;;5.30;4.30;;;14.80;99.90;;;;;;5036145;28;20430;-80
2021/08/26 01:09:03;;;;;;;7.60;4.03;;;14.70;99.90;;;;;;5039751;28;20467;-78
2021/08/26 01:11:32;;;;;;;13.80;5.00;;;14.80;99.90;;;;;;5039739;28;20442;-79
2021/08/26 01:14:00;;;;;;;5.60;4.10;;;14.80;99.90;;;;;;5039515;28;20467;-79
2021/08/26 01:16:27;;;;;;;7.07;4.87;;;14.80;99.90;;;;;;5039507;28;20486;-79
2021/08/26 01:18:53;;;;;;;8.73;5.47;;;14.80;99.90;;;;;;5038970;28;20478;-79
2021/08/26 01:21:24;;;;;;;6.93;4.27;;;14.70;99.90;;;;;;5039241;28;20446;-79
2021/08/26 01:23:55;;;;;;;10.33;5.10;;;14.80;99.90;;;;;;5043549;28;20463;-79
2021/08/26 01:26:25;;;;;;;9.50;5.37;;;14.80;99.90;;;;;;5059289;28;20431;-79
2021/08/26 01:28:55;;;;;;;9.20;4.97;;;14.80;99.90;;;;;;5059484;28;20446;-79
2021/08/26 01:31:22;;;;;;;8.10;6.07;;;14.80;99.90;;;;;;5053901;28;20447;-79
2021/08/26 01:33:49;;;;;;;10.40;4.90;;;14.70;99.90;;;;;;5058931;28;20455;-79
2021/08/26 01:36:16;;;;;;;11.90;4.97;;;14.70;99.90;;;;;;5060648;28;20447;-77
2021/08/26 01:38:44;;;;;;;9.03;4.33;;;14.70;99.90;;;;;;5053953;28;20447;-79
2021/08/26 01:41:11;;;;;;;5.00;4.50;;;14.70;99.90;;;;;;5046130;28;20450;-78
2021/08/26 01:43:39;;;;;;;6.63;3.90;;;14.80;99.90;;;;;;5044630;28;20467;-78
2021/08/26 01:46:05;;;;;;;7.10;3.90;;;14.70;99.90;;;;;;5044345;28;20521;-78
2021/08/26 01:48:32;;;;;;;9.73;4.07;;;14.70;99.90;;;;;;5041448;28;20462;-79
2021/08/26 01:50:58;;;;;;;14.33;4.40;;;14.70;99.90;;;;;;5038684;28;20486;-79
2021/08/26 01:53:25;;;;;;;5.80;4.60;;;14.80;99.90;;;;;;5038338;28;20483;-79
2021/08/26 01:55:54;;;;;;;5.87;4.33;;;14.70;99.90;;;;;;5038442;28;20501;-79
2021/08/26 01:58:21;;;;;;;6.50;3.97;;;14.80;99.90;;;;;;5038114;28;20873;-79
2021/08/26 02:00:49;;;;;;;9.70;4.73;;;14.80;99.90;;;;;;5038703;28;20921;-79
2021/08/26 02:03:16;;;;;;;18.03;5.00;;;14.70;99.90;;;;;;5038107;28;20474;-79
2021/08/26 02:05:42;;;;;;;9.60;4.73;;;14.80;99.90;;;;;;5037538;28;20475;-80
2021/08/26 02:08:09;;;;;;;4.33;3.93;;;14.70;99.90;;;;;;5037520;28;20450;-78
2021/08/26 02:10:35;;;;;;;9.30;4.73;;;14.60;99.90;;;;;;5037470;28;20843;-79
2021/08/26 02:13:02;;;;;;;10.33;5.60;;;14.80;99.90;;;;;;5037492;28;20454;-79
2021/08/26 02:15:29;;;;;;;9.27;5.70;;;14.60;99.90;;;;;;5037473;28;20450;-80
2021/08/26 02:17:56;;;;;;;12.40;5.00;;;14.60;99.90;;;;;;5036775;28;20432;-79
2021/08/26 02:20:23;;;;;;;15.80;5.83;;;14.60;99.90;;;;;;5038554;28;20566;-79
2021/08/26 02:22:50;;;;;;;9.33;5.80;;;14.50;99.90;;;;;;5037967;28;20482;-79
2021/08/26 02:25:17;;;;;;;9.40;5.33;;;14.60;99.90;;;;;;5037220;28;20559;-79
2021/08/26 02:27:43;;;;;;;7.03;5.00;;;14.30;99.90;;;;;;5038912;28;20477;-78
2021/08/26 02:30:11;;;;;;;10.50;5.30;;;14.60;99.90;;;;;;5043132;28;20497;-78
2021/08/26 02:32:38;;;;;;;10.90;4.60;;;14.60;99.90;;;;;;5025964;28;20443;-78
2021/08/26 02:35:07;;;;;;;8.30;4.23;;;14.70;99.90;;;;;;5042694;28;20490;-78
2021/08/26 02:37:34;;;;;;;8.60;4.70;;;14.60;99.90;;;;;;5043140;28;20458;-78
2021/08/26 02:40:00;;;;;;;8.43;4.83;;;14.60;99.90;;;;;;5042362;28;20942;-78
2021/08/26 02:42:27;;;;;;;13.00;5.67;;;14.60;99.90;;;;;;5043505;28;20815;-78
2021/08/26 02:44:53;;;;;;;12.57;5.60;;;14.60;99.90;;;;;;5042783;28;20510;-78
2021/08/26 02:47:20;;;;;;;14.47;5.10;;;14.60;99.90;;;;;;5039086;28;20474;-80
2021/08/26 02:49:46;;;;;;;9.53;4.87;;;14.70;99.90;;;;;;5037909;28;20510;-79
2021/08/26 02:52:14;;;;;;;10.10;5.60;;;14.60;99.90;;;;;;5037294;28;20486;-79
2021/08/26 02:54:41;;;;;;;5.83;4.63;;;14.60;99.90;;;;;;5038024;28;20475;-79
2021/08/26 02:57:08;;;;;;;9.57;5.03;;;14.60;99.90;;;;;;5037027;28;20958;-78
2021/08/26 02:59:35;;;;;;;8.50;5.47;;;14.60;99.90;;;;;;5036636;28;20450;-79
2021/08/26 03:02:01;;;;;;;7.67;4.90;;;14.60;99.90;;;;;;5037497;28;20455;-79
2021/08/26 03:04:28;;;;;;;10.03;5.33;;;14.60;99.90;;;;;;5036692;28;20505;-79
2021/08/26 03:06:54;;;;;;;11.63;5.00;;;14.60;99.90;;;;;;5036193;28;20451;-78
2021/08/26 03:09:22;;;;;;;12.90;5.57;;;14.60;99.90;;;;;;5035960;28;20502;-78
2021/08/26 03:11:49;;;;;;;12.33;5.77;;;14.60;99.90;;;;;;5036151;28;20457;-78
2021/08/26 03:14:15;;;;;;;10.70;5.80;;;14.60;99.90;;;;;;5046300;28;20573;-78
2021/08/26 03:16:42;;;;;;;14.33;6.03;;;14.50;99.90;;;;;;5048744;28;20458;-78
2021/08/26 03:19:08;;;;;;;11.80;5.87;;;14.50;99.90;;;;;;5037162;28;20459;-78
2021/08/26 03:21:35;;;;;;;8.23;5.20;;;14.50;99.90;;;;;;5036743;28;20485;-78
2021/08/26 03:24:02;;;;;;;9.97;5.10;;;14.60;99.90;;;;;;5036672;28;20520;-79
2021/08/26 03:26:30;;;;;;;12.73;6.73;;;14.50;99.90;;;;;;5036313;28;20483;-79
2021/08/26 03:28:56;;;;;;;12.97;5.40;;;14.50;99.90;;;;;;5036076;28;20451;-79
2021/08/26 03:31:23;;;;;;;11.77;6.70;;;14.40;99.90;;;;;;5036313;28;20501;-79
2021/08/26 03:33:49;;;;;;;13.60;5.90;;;14.40;99.90;;;;;;5037399;28;20472;-79
2021/08/26 03:36:17;;;;;;;10.23;6.57;;;14.30;99.90;;;;;;5038797;28;20447;-79
2021/08/26 03:38:43;;;;;;;14.57;6.90;;;14.30;99.90;;;;;;5036039;28;20447;-80
2021/08/26 03:41:10;;;;;;;24.07;6.00;;;14.30;99.90;;;;;;5036174;28;20478;-80
2021/08/26 03:43:38;;;;;;;19.20;6.80;;;14.30;99.90;;;;;;5035991;28;20499;-80
2021/08/26 03:46:04;;;;;;;14.93;7.13;;;14.40;99.90;;;;;;5036427;28;20515;-80
2021/08/26 03:48:31;;;;;;;17.40;7.27;;;14.40;99.90;;;;;;5035380;28;20478;-80
2021/08/26 03:50:57;;;;;;;15.20;7.23;;;14.40;99.90;;;;;;5034916;28;20949;-79
2021/08/26 03:53:24;;;;;;;14.50;7.00;;;14.40;99.90;;;;;;5035270;28;20509;-80
2021/08/26 03:55:51;;;;;;;15.37;7.63;;;14.40;99.90;;;;;;5034986;28;20833;-79
2021/08/26 03:58:17;;;;;;;18.57;9.37;;;14.30;99.90;;;;;;5035654;28;20478;-79
2021/08/26 04:00:45;;;;;;;18.07;7.67;;;14.50;99.90;;;;;;5035206;28;20478;-79
2021/08/26 04:03:12;;;;;;;19.17;7.97;;;14.50;99.90;;;;;;5035565;28;20510;-80
2021/08/26 04:05:38;;;;;;;16.80;6.17;;;14.40;99.90;;;;;;5035221;28;20581;-79
2021/08/26 04:08:05;;;;;;;22.47;7.10;;;14.40;99.90;;;;;;5035280;28;20471;-80
2021/08/26 04:10:33;;;;;;;17.77;7.30;;;14.40;99.90;;;;;;5035420;28;20868;-80
2021/08/26 04:12:59;;;;;;;15.30;7.10;;;14.60;99.90;;;;;;5035167;28;20589;-79
2021/08/26 04:15:26;;;;;;;19.33;7.97;;;14.40;99.90;;;;;;5035272;28;20483;-80
2021/08/26 04:17:54;;;;;;;15.50;6.80;;;14.50;99.90;;;;;;5036161;28;20446;-79
2021/08/26 04:20:20;;;;;;;15.80;8.87;;;14.50;99.90;;;;;;5039983;28;20454;-79
2021/08/26 04:22:47;;;;;;;13.23;6.13;;;14.50;99.90;;;;;;5039079;28;20451;-79
2021/08/26 04:25:13;;;;;;;16.53;7.77;;;14.40;99.90;;;;;;5037965;28;20518;-79
2021/08/26 04:27:40;;;;;;;20.03;7.00;;;14.40;99.90;;;;;;5035006;28;20478;-79
2021/08/26 04:30:08;;;;;;;14.77;7.07;;;14.40;99.90;;;;;;5034906;28;20455;-79
2021/08/26 04:32:34;;;;;;;19.57;6.00;;;14.40;99.90;;;;;;5034605;28;20443;-79
2021/08/26 04:35:03;;;;;;;18.80;7.80;;;14.40;99.90;;;;;;5034993;28;20887;-79
2021/08/26 04:37:30;;;;;;;15.00;7.07;;;14.40;99.90;;;;;;5034808;28;20530;-79
2021/08/26 04:39:57;;;;;;;20.30;8.00;;;14.40;99.90;;;;;;5035002;28;20450;-79
2021/08/26 04:42:23;;;;;;;21.50;6.77;;;14.40;99.90;;;;;;5034596;28;20447;-80
2021/08/26 04:44:50;;;;;;;21.37;8.50;;;14.40;99.90;;;;;;5034859;28;20467;-79
2021/08/26 04:47:17;;;;;;;19.87;6.97;;;14.30;99.90;;;;;;5034561;28;20483;-79
2021/08/26 04:49:43;;;;;;;13.30;7.00;;;14.40;99.90;;;;;;5035890;28;20427;-79
2021/08/26 04:52:11;;;;;;;16.67;7.70;;;14.40;99.90;;;;;;5036429;28;20447;-79
2021/08/26 04:54:37;;;;;;;18.07;8.23;;;14.30;99.90;;;;;;5034866;28;20514;-79
2021/08/26 04:57:04;;;;;;;20.27;8.37;;;14.40;99.90;;;;;;5034769;28;20529;-79
2021/08/26 04:59:31;;;;;;;17.07;7.80;;;14.30;99.90;;;;;;5034601;28;20443;-79
2021/08/26 05:01:57;;;;;;;19.27;8.50;;;14.30;99.90;;;;;;5034702;28;20964;-79
2021/08/26 05:04:24;;;;;;;22.87;10.23;;;14.20;99.90;;;;;;5034815;28;20549;-79
2021/08/26 05:06:51;;;;;;;15.50;9.10;;;14.30;99.90;;;;;;5034076;28;20526;-80
2021/08/26 05:09:19;;;;;;;15.63;6.80;;;14.30;99.90;;;;;;5034571;28;20475;-80
2021/08/26 05:11:46;;;;;;;21.87;9.00;;;14.30;99.90;;;;;;5036791;28;20470;-79
2021/08/26 05:14:13;;;;;;;20.33;7.10;;;14.30;99.90;;;;;;5036667;28;20509;-79
2021/08/26 05:16:39;;;;;;;21.87;8.37;;;14.40;99.90;;;;;;5037594;28;20485;-80
2021/08/26 05:19:06;;;;;;;19.00;7.53;;;14.40;99.90;;;;;;5037179;28;20443;-79
2021/08/26 05:21:33;;;;;;;20.73;7.43;;;14.40;99.90;;;;;;5036025;28;20454;-79
2021/08/26 05:23:59;;;;;;;18.20;7.57;;;14.50;99.90;;;;;;5034740;28;20497;-80
2021/08/26 05:26:27;;;;;;;24.23;13.20;;;14.50;99.90;;;;;;5034723;28;20482;-80
2021/08/26 05:28:53;;;;;;;19.10;9.07;;;14.50;99.90;;;;;;5034377;28;20533;-79
2021/08/26 05:31:20;;;;;;;24.90;7.93;;;14.60;99.90;;;;;;5034268;28;20498;-80
2021/08/26 05:33:47;;;;;;;21.33;8.20;;;14.60;99.90;;;;;;5034588;28;20467;-79
2021/08/26 05:36:13;;;;;;;16.57;6.47;;;14.60;99.90;;;;;;5034446;28;20471;-80
2021/08/26 05:38:40;;;;;;;15.10;7.73;;;14.60;99.90;;;;;;5034213;28;20501;-79
2021/08/26 05:41:06;;;;;;;34.80;8.57;;;14.60;99.90;;;;;;5037736;28;20454;-79
2021/08/26 05:43:34;;;;;;;14.17;6.80;;;14.60;99.90;;;;;;5056334;28;20466;-78
2021/08/26 05:46:01;;;;;;;24.30;7.83;;;14.60;99.90;;;;;;5039821;28;20509;-80
2021/08/26 05:48:30;;;;;;;12.93;7.23;;;14.60;99.90;;;;;;5035849;28;20478;-80
2021/08/26 05:50:56;;;;;;;18.37;7.83;;;14.70;99.90;;;;;;5035403;28;20483;-80
2021/08/26 05:53:23;;;;;;;19.40;6.93;;;14.60;99.90;;;;;;5037350;28;20474;-79
2021/08/26 05:55:50;;;;;;;23.33;9.17;;;14.60;99.90;;;;;;5039102;28;20458;-80
2021/08/26 05:58:17;;;;;;;17.63;8.30;;;14.70;99.90;;;;;;5037702;28;20497;-79
2021/08/26 06:00:45;;;;;;;28.27;9.43;;;14.80;99.90;;;;;;5037780;28;20451;-80
2021/08/26 06:03:12;;;;;;;25.57;9.17;;;14.90;99.90;;;;;;5038383;28;20837;-79
2021/08/26 06:05:38;;;;;;;19.27;7.90;;;14.70;99.90;;;;;;5038191;28;20451;-79
2021/08/26 06:08:05;;;;;;;18.20;8.17;;;14.80;99.90;;;;;;5037424;28;20447;-80
2021/08/26 06:10:32;;;;;;;14.00;7.00;;;14.90;99.90;;;;;;5038094;28;20447;-80
2021/08/26 06:12:58;;;;;;;17.07;6.97;;;15.10;99.90;;;;;;5037432;28;20486;-80
2021/08/26 06:15:25;;;;;;;23.77;7.67;;;14.80;99.90;;;;;;5037157;28;20586;-78
2021/08/26 06:17:53;;;;;;;15.67;6.80;;;14.80;99.90;;;;;;5037698;28;20474;-80
2021/08/26 06:20:19;;;;;;;14.40;7.80;;;14.80;99.90;;;;;;5037488;28;20442;-78
2021/08/26 06:22:46;;;;;;;27.10;7.10;;;15.30;99.90;;;;;;5037516;28;20845;-79
2021/08/26 06:25:13;;;;;;;13.23;6.03;;;14.90;99.90;;;;;;5038682;28;20474;-79
2021/08/26 06:27:40;;;;;;;11.50;8.23;;;14.80;99.90;;;;;;5036840;28;20514;-79
2021/08/26 06:30:10;;;;;;;18.90;8.07;;;14.80;99.90;;;;;;5036716;28;20482;-79
2021/08/26 06:32:37;;;;;;;18.97;7.17;;;14.80;99.90;;;;;;5037265;28;20458;-79
2021/08/26 06:35:06;;;;;;;15.10;7.67;;;14.80;99.90;;;;;;5036052;28;20501;-79
2021/08/26 06:37:33;;;;;;;19.33;7.20;;;14.80;99.90;;;;;;5038199;28;20478;-78
2021/08/26 06:40:00;;;;;;;21.20;7.53;;;14.80;99.90;;;;;;5040378;28;20492;-79
2021/08/26 06:42:27;;;;;;;19.37;8.37;;;15.30;99.90;;;;;;5040693;28;20462;-79
2021/08/26 06:44:53;;;;;;;13.33;7.10;;;15.00;99.90;;;;;;5040192;28;20502;-79
2021/08/26 06:47:20;;;;;;;15.47;7.37;;;15.00;99.90;;;;;;5039605;28;20510;-79
2021/08/26 06:49:47;;;;;;;12.17;6.10;;;15.00;99.90;;;;;;5039483;28;20455;-79
2021/08/26 06:52:15;;;;;;;36.70;8.33;;;15.10;99.90;;;;;;5037681;28;20479;-79
2021/08/26 06:54:42;;;;;;;11.00;6.30;;;15.10;99.90;;;;;;5039636;28;20494;-78
2021/08/26 06:57:08;;;;;;;16.80;6.93;;;15.20;99.90;;;;;;5041425;28;20461;-79
2021/08/26 06:59:35;;;;;;;10.20;5.33;;;15.30;99.90;;;;;;5040761;28;20447;-79
2021/08/26 07:02:02;;;;;;;16.53;6.90;;;15.30;99.90;;;;;;5039658;28;20478;-79
2021/08/26 07:04:28;;;;;;;15.73;7.03;;;15.40;99.90;;;;;;5039292;28;20509;-79
2021/08/26 07:06:56;;;;;;;9.90;5.67;;;15.40;99.90;;;;;;5040023;28;21100;-79
2021/08/26 07:09:24;;;;;;;18.23;6.03;;;15.30;99.90;;;;;;5039968;28;20513;-79
2021/08/26 07:11:51;;;;;;;20.90;6.53;;;15.30;99.90;;;;;;5039695;28;20474;-79
2021/08/26 07:14:18;;;;;;;13.10;5.67;;;15.10;99.90;;;;;;5038311;28;20477;-80
2021/08/26 07:16:44;;;;;;;15.83;6.10;;;15.40;99.90;;;;;;5035971;28;20443;-78
2021/08/26 07:19:11;;;;;;;15.63;5.93;;;15.20;99.90;;;;;;5035934;28;20451;-79
2021/08/26 07:21:38;;;;;;;11.87;5.40;;;15.30;99.90;;;;;;5035976;28;20482;-79
2021/08/26 07:24:05;;;;;;;10.13;5.47;;;15.30;99.90;;;;;;5036108;28;20502;-79
2021/08/26 07:26:33;;;;;;;17.53;7.43;;;15.40;99.90;;;;;;5035926;28;20969;-79
2021/08/26 07:28:59;;;;;;;12.37;5.87;;;15.60;99.90;;;;;;5036349;28;20545;-79
2021/08/26 07:31:26;;;;;;;11.70;5.80;;;15.10;99.90;;;;;;5035971;28;20466;-79
2021/08/26 07:33:53;;;;;;;13.23;5.40;;;15.50;99.90;;;;;;5050199;28;20441;-78
2021/08/26 07:36:19;;;;;;;13.73;6.57;;;15.90;99.90;;;;;;5055601;28;20458;-78
2021/08/26 07:38:46;;;;;;;8.43;6.00;;;15.80;99.90;;;;;;5057136;28;20462;-78
2021/08/26 07:41:13;;;;;;;7.77;4.10;;;15.90;99.90;;;;;;5057560;28;20442;-77
2021/08/26 07:43:41;;;;;;;14.10;5.10;;;15.70;99.90;;;;;;5055836;28;20486;-78
2021/08/26 07:46:08;;;;;;;10.53;4.60;;;15.80;99.90;;;;;;5053302;28;20451;-78
2021/08/26 07:48:35;;;;;;;9.30;4.40;;;15.80;99.90;;;;;;5040408;28;20458;-78
2021/08/26 07:51:03;;;;;;;10.27;4.20;;;15.80;99.90;;;;;;5037584;28;20466;-79
2021/08/26 07:53:31;;;;;;;8.70;3.50;;;15.80;99.90;;;;;;5036314;28;20601;-79
2021/08/26 07:55:57;;;;;;;8.23;3.93;;;15.80;99.90;;;;;;5036176;28;20431;-79
2021/08/26 07:58:24;;;;;;;17.43;4.60;;;16.00;99.90;;;;;;5036875;28;20797;-79
2021/08/26 08:00:53;;;;;;;5.60;3.90;;;16.20;99.90;;;;;;5037148;28;20513;-79
2021/08/26 08:03:25;;;;;;;9.33;3.30;;;15.90;99.90;;;;;;5035688;28;20467;-79
2021/08/26 08:05:53;;;;;;;16.07;5.50;;;16.10;99.90;;;;;;5036621;28;20427;-78
2021/08/26 08:08:19;;;;;;;15.23;5.67;;;16.20;99.90;;;;;;5035843;28;20494;-79
2021/08/26 08:10:46;;;;;;;8.70;4.60;;;16.20;99.90;;;;;;5044066;28;20551;-79
2021/08/26 08:13:15;;;;;;;8.33;3.60;;;16.50;99.90;;;;;;5041233;28;20497;-80
2021/08/26 08:15:43;;;;;;;5.93;4.20;;;16.40;99.90;;;;;;5038672;28;20474;-79
2021/08/26 08:18:11;;;;;;;8.90;3.60;;;16.50;99.90;;;;;;5036361;28;20811;-80
2021/08/26 08:20:38;;;;;;;8.33;3.60;;;16.50;99.90;;;;;;5035864;28;20546;-80
2021/08/26 08:23:05;;;;;;;11.10;3.23;;;16.50;99.90;;;;;;5035759;28;20467;-80
2021/08/26 08:25:31;;;;;;;7.40;3.17;;;16.40;99.90;;;;;;5036793;28;20442;-79
2021/08/26 08:27:59;;;;;;;6.93;3.50;;;16.20;99.90;;;;;;5036109;28;20532;-79
2021/08/26 08:30:27;;;;;;;14.00;3.63;;;16.20;99.90;;;;;;5036720;28;20618;-79
2021/08/26 08:32:54;;;;;;;5.93;2.60;;;16.50;99.90;;;;;;5035518;28;20447;-79
2021/08/26 08:35:24;;;;;;;6.87;2.70;;;16.20;99.90;;;;;;5036569;28;20641;-79
2021/08/26 08:37:54;;;;;;;7.93;3.53;;;16.00;99.90;;;;;;5038459;28;20439;-80
2021/08/26 08:40:20;;;;;;;8.33;4.23;;;16.00;99.90;;;;;;5054566;28;20443;-79
2021/08/26 08:42:47;;;;;;;6.30;3.50;;;16.20;99.90;;;;;;5054570;28;20505;-79
2021/08/26 08:45:13;;;;;;;8.27;3.20;;;16.30;99.90;;;;;;5055922;28;20462;-79
2021/08/26 08:47:44;;;;;;;6.93;3.57;;;16.60;99.90;;;;;;5056624;28;20482;-79
2021/08/26 08:50:11;;;;;;;6.17;2.83;;;16.80;99.90;;;;;;5052595;28;20431;-80
2021/08/26 08:52:40;;;;;;;3.13;2.43;;;17.00;99.90;;;;;;5052125;28;20461;-79
2021/08/26 08:55:09;;;;;;;4.20;2.40;;;17.10;99.90;;;;;;5044900;28;20532;-79
2021/08/26 08:57:37;;;;;;;6.23;2.50;;;17.00;99.90;;;;;;5036841;28;20479;-79
2021/08/26 09:00:07;;;;;;;9.70;3.70;;;16.80;99.90;;;;;;5036439;28;20765;-79
2021/08/26 09:02:33;;;;;;;7.07;3.30;;;16.50;99.90;;;;;;5035763;28;20446;-79
2021/08/26 09:05:01;;;;;;;3.80;3.47;;;15.60;99.90;;;;;;5035577;28;20471;-79
2021/08/26 09:07:29;;;;;;;5.87;2.90;;;14.40;99.90;;;;;;5034086;28;20522;-77
2021/08/26 09:09:58;;;;;;;6.63;3.47;;;14.30;99.90;;;;;;5033683;28;21018;-77
2021/08/26 09:12:44;;;;;;;4.93;2.27;;;14.00;99.90;;;;;;5033875;28;20443;-78
2021/08/26 09:15:13;;;;;;;2.80;2.20;;;13.70;99.90;;;;;;5034142;28;20446;-78
2021/08/26 09:17:39;;;;;;;4.40;3.13;;;13.70;99.90;;;;;;5033731;28;20474;-78
2021/08/26 09:20:09;;;;;;;3.40;2.33;;;13.60;99.90;;;;;;5033507;28;20471;-78
2021/08/26 09:22:36;;;;;;;3.00;1.60;;;13.50;99.90;;;;;;5033266;28;20828;-78
2021/08/26 09:25:06;;;;;;;5.07;2.10;;;13.40;99.90;;;;;;5033397;28;20482;-78
2021/08/26 09:27:38;;;;;;;3.07;2.37;;;13.40;99.90;;;;;;5033541;28;21013;-78
2021/08/26 09:30:07;;;;;;;2.60;2.40;;;13.50;99.90;;;;;;5038445;28;20455;-78
2021/08/26 09:32:35;;;;;;;3.20;2.60;;;13.80;99.90;;;;;;5043843;28;20484;-77
2021/08/26 09:35:27;;;;;;;4.60;2.50;;;14.00;99.90;;;;;;5044054;28;20481;-77
2021/08/26 09:37:56;;;;;;;2.83;2.63;;;14.30;99.90;;;;;;5027030;28;20447;-78
2021/08/26 09:40:25;;;;;;;9.70;2.87;;;14.30;99.90;;;;;;5038836;28;20866;-78
2021/08/26 09:42:57;;;;;;;11.80;3.57;;;14.70;99.90;;;;;;5038718;28;20442;-78
2021/08/26 09:45:25;;;;;;;6.50;2.63;;;14.50;99.90;;;;;;5038289;28;20945;-78
2021/08/26 09:48:03;;;;;;;9.03;3.20;;;14.60;99.90;;;;;;5037770;28;20529;-78
2021/08/26 09:50:44;;;;;;;3.10;2.40;;;14.70;99.90;;;;;;5037455;28;20431;-78
2021/08/26 09:53:12;;;;;;;6.17;3.40;;;14.80;99.90;;;;;;5037275;28;20895;-78
2021/08/26 09:56:02;;;;;;;4.00;3.00;;;14.80;99.90;;;;;;5037669;28;20435;-78
2021/08/26 09:58:30;;;;;;;8.30;2.70;;;15.00;99.90;;;;;;5038738;28;20435;-78
2021/08/26 10:01:16;;;;;;;4.30;1.70;;;15.10;99.90;;;;;;5038298;28;20498;-78
2021/08/26 10:03:45;;;;;;;2.17;1.27;;;15.20;99.90;;;;;;5036976;28;20474;-78
2021/08/26 10:06:13;;;;;;;1.67;1.40;;;15.40;99.90;;;;;;5037391;28;20450;-78
2021/08/26 10:08:41;;;;;;;2.27;0.80;;;15.40;99.90;;;;;;5037240;28;20482;-78
2021/08/26 10:11:11;;;;;;;4.63;1.30;;;15.30;99.90;;;;;;5037062;28;20980;-78
2021/08/26 10:13:38;;;;;;;3.43;1.10;;;15.50;99.90;;;;;;5036952;28;20506;-78
2021/08/26 10:16:05;;;;;;;2.20;1.23;;;15.40;99.90;;;;;;5036631;28;20946;-79
2021/08/26 10:18:34;;;;;;;2.60;1.10;;;15.60;99.90;;;;;;5036880;28;20447;-78
2021/08/26 10:21:03;;;;;;;2.13;1.00;;;15.70;99.90;;;;;;5036754;28;20873;-78
2021/08/26 10:23:31;;;;;;;2.17;1.20;;;15.70;99.90;;;;;;5036897;28;20471;-78
2021/08/26 10:26:01;;;;;;;1.03;0.93;;;15.70;99.90;;;;;;5036009;28;21025;-78
2021/08/26 10:28:29;;;;;;;1.20;0.80;;;15.80;99.90;;;;;;5036456;28;20906;-78
2021/08/26 10:30:56;;;;;;;1.97;1.03;;;16.20;99.90;;;;;;5035859;28;20454;-78
2021/08/26 10:33:27;;;;;;;2.00;1.20;;;16.00;99.90;;;;;;5036118;28;20977;-78
2021/08/26 10:36:08;;;;;;;2.00;0.90;;;16.10;99.90;;;;;;5040905;28;20458;-76
2021/08/26 10:38:36;;;;;;;2.63;1.10;;;16.10;99.90;;;;;;5048231;28;20478;-77
2021/08/26 10:41:26;;;;;;;1.23;0.97;;;16.00;99.90;;;;;;5040682;28;20455;-77
2021/08/26 10:43:58;;;;;;;2.20;0.87;;;16.00;99.90;;;;;;5039929;28;20498;-77
2021/08/26 10:46:47;;;;;;;1.60;1.47;;;16.00;99.90;;;;;;5040139;28;20427;-77
2021/08/26 10:49:14;;;;;;;3.83;1.50;;;16.00;99.90;;;;;;5040256;28;20445;-78
2021/08/26 10:51:42;;;;;;;2.20;1.40;;;16.00;99.90;;;;;;5036475;28;20478;-78
2021/08/26 10:54:28;;;;;;;2.60;1.00;;;16.20;99.90;;;;;;5036735;28;20857;-78
2021/08/26 10:56:55;;;;;;;2.43;1.30;;;16.20;99.90;;;;;;5036829;28;20485;-78
2021/08/26 10:59:30;;;;;;;1.83;1.23;;;16.10;99.90;;;;;;5035978;28;20517;-78
2021/08/26 11:01:57;;;;;;;1.97;1.23;;;16.00;99.90;;;;;;5036584;28;20474;-78
2021/08/26 11:04:29;;;;;;;2.93;1.50;;;16.00;99.90;;;;;;5036244;28;20901;-79
2021/08/26 11:06:57;;;;;;;2.53;0.83;;;16.00;99.90;;;;;;5036386;28;20438;-79
2021/08/26 11:09:34;;;;;;;3.20;1.60;;;15.80;99.90;;;;;;5036770;28;20439;-79
2021/08/26 11:12:24;;;;;;;1.53;0.90;;;16.00;99.90;;;;;;5037255;28;20434;-79
2021/08/26 11:14:56;;;;;;;2.03;0.97;;;16.20;99.90;;;;;;5044193;28;20554;-78
2021/08/26 11:17:28;;;;;;;1.17;1.07;;;16.20;99.90;;;;;;5046058;28;21005;-78
2021/08/26 11:19:56;;;;;;;1.10;1.00;;;16.20;99.90;;;;;;5046936;28;20432;-78
2021/08/26 11:22:22;;;;;;;2.83;1.93;;;16.30;99.90;;;;;;5045897;28;20451;-78
2021/08/26 11:24:54;;;;;;;2.50;1.20;;;16.30;99.90;;;;;;5046830;28;20455;-78
2021/08/26 11:27:23;;;;;;;1.00;0.70;;;16.40;99.90;;;;;;5046522;28;20455;-78
2021/08/26 11:29:53;;;;;;;1.20;0.80;;;16.50;99.90;;;;;;5046065;28;20447;-77
2021/08/26 11:32:20;;;;;;;1.50;0.93;;;16.70;99.90;;;;;;5043940;28;20612;-78
2021/08/26 11:34:49;;;;;;;1.90;1.00;;;16.80;99.90;;;;;;5035371;28;20466;-78
2021/08/26 11:37:18;;;;;;;1.33;0.80;;;17.00;99.90;;;;;;5035726;28;20950;-78
2021/08/26 11:39:47;;;;;;;1.00;0.80;;;17.00;99.90;;;;;;5035447;28;20455;-78
2021/08/26 11:42:28;;;;;;;1.43;1.03;;;16.90;99.90;;;;;;5035014;28;20863;-77
2021/08/26 11:45:18;;;;;;;1.13;1.07;;;16.90;99.90;;;;;;5034540;28;20475;-78
2021/08/26 11:47:47;;;;;;;2.73;0.70;;;17.00;99.90;;;;;;5034769;28;20428;-78
2021/08/26 11:50:19;;;;;;;1.93;1.30;;;16.90;99.90;;;;;;5034886;28;20438;-78
2021/08/26 11:52:47;;;;;;;1.47;0.77;;;16.90;99.90;;;;;;5034747;28;20562;-78
2021/08/26 11:55:14;;;;;;;1.50;0.70;;;16.90;99.90;;;;;;5037515;28;20474;-78
2021/08/26 11:57:42;;;;;;;0.80;0.70;;;16.80;99.90;;;;;;5036994;28;20486;-78
2021/08/26 12:00:15;;;;;;;0.80;0.77;;;16.50;99.90;;;;;;5035527;28;20538;-78
2021/08/26 12:02:49;;;;;;;0.80;0.60;;;16.70;99.90;;;;;;5035583;28;20839;-77
2021/08/26 12:05:16;;;;;;;0.80;0.70;;;16.60;99.90;;;;;;5035292;28;20543;-79
2021/08/26 12:07:45;;;;;;;0.90;0.70;;;16.40;99.90;;;;;;5037855;28;20443;-79
2021/08/26 12:10:17;;;;;;;1.67;1.00;;;16.30;99.90;;;;;;5039834;28;20497;-79
2021/08/26 12:12:54;;;;;;;0.90;0.80;;;16.50;99.90;;;;;;5038411;28;20921;-77
2021/08/26 12:15:27;;;;;;;0.93;0.93;;;16.20;99.90;;;;;;5038491;28;20848;-77
2021/08/26 12:18:02;;;;;;;2.50;0.80;;;16.20;99.90;;;;;;5037548;28;20806;-78
2021/08/26 12:20:31;;;;;;;0.80;0.80;;;16.10;99.90;;;;;;5035318;28;20423;-77
2021/08/26 12:23:00;;;;;;;3.10;0.90;;;16.30;99.90;;;;;;5035042;28;20479;-78
2021/08/26 12:25:32;;;;;;;0.93;0.90;;;16.10;99.90;;;;;;5034949;28;20878;-78
2021/08/26 12:28:03;;;;;;;1.47;1.13;;;16.20;99.90;;;;;;5034090;28;20451;-78
2021/08/26 12:30:36;;;;;;;1.00;0.90;;;16.20;99.90;;;;;;5034147;28;20774;-78
2021/08/26 12:33:15;;;;;;;2.37;1.23;;;16.20;99.90;;;;;;5034650;28;20499;-78
2021/08/26 12:35:48;;;;;;;4.03;0.70;;;16.40;99.90;;;;;;5034256;28;20466;-78
2021/08/26 12:38:17;;;;;;;0.90;0.70;;;16.40;99.90;;;;;;5033624;28;20467;-78
2021/08/26 12:40:55;;;;;;;1.50;0.63;;;16.60;99.90;;;;;;5034072;28;20466;-79
2021/08/26 12:43:26;;;;;;;1.40;0.80;;;16.50;99.90;;;;;;5033987;28;20554;-78
2021/08/26 12:46:07;;;;;;;3.80;0.90;;;16.60;99.90;;;;;;5033866;28;20483;-78
2021/08/26 12:48:37;;;;;;;2.20;0.80;;;16.70;99.90;;;;;;5034190;28;20423;-79
2021/08/26 12:51:19;;;;;;;1.00;0.70;;;16.70;99.90;;;;;;5033970;28;20454;-78
2021/08/26 12:54:22;;;;;;;0.90;0.80;;;16.90;99.90;;;;;;5133054;22;20453;-82
2021/08/26 12:57:17;;;;;;;1.43;0.80;;;16.80;99.90;;;;;;5031523;28;20440;-82